sensor_id;sensor_type;location;lat;lon;timestamp;P1;durP1;ratioP1;P2;durP2;ratioP2
8407;SDS011;4241;48.452;9.216;2022-09-03T00:01:37;480.40;;;219.97;;
8407;SDS011;4241;48.452;9.216;2022-09-03T00:04:09;478.80;;;214.03;;
8407;SDS011;4241;48.452;9.216;2022-09-03T00:06:44;479.43;;;217.83;;
8407;SDS011;4241;48.452;9.216;2022-09-03T00:09:19;479.27;;;215.70;;
8407;SDS011;4241;48.452;9.216;2022-09-03T00:11:51;479.27;;;217.73;;
8407;SDS011;4241;48.452;9.216;2022-09-03T00:14:24;475.87;;;210.07;;
8407;SDS011;4241;48.452;9.216;2022-09-03T00:16:58;479.53;;;214.30;;
8407;SDS011;4241;48.452;9.216;2022-09-03T00:19:29;480.17;;;220.43;;
8407;SDS011;4241;48.452;9.216;2022-09-03T00:22:01;480.17;;;216.00;;
8407;SDS011;4241;48.452;9.216;2022-09-03T00:24:34;480.57;;;218.57;;
8407;SDS011;4241;48.452;9.216;2022-09-03T00:27:05;481.07;;;220.20;;
8407;SDS011;4241;48.452;9.216;2022-09-03T00:29:36;477.93;;;218.00;;
8407;SDS011;4241;48.452;9.216;2022-09-03T00:32:10;481.07;;;219.83;;
8407;SDS011;4241;48.452;9.216;2022-09-03T00:34:42;481.37;;;214.97;;
8407;SDS011;4241;48.452;9.216;2022-09-03T00:37:16;480.60;;;218.17;;
8407;SDS011;4241;48.452;9.216;2022-09-03T00:39:43;478.73;;;214.90;;
8407;SDS011;4241;48.452;9.216;2022-09-03T00:42:20;479.27;;;212.97;;
8407;SDS011;4241;48.452;9.216;2022-09-03T00:45:02;482.53;;;217.60;;
8407;SDS011;4241;48.452;9.216;2022-09-03T00:47:50;478.83;;;212.57;;
8407;SDS011;4241;48.452;9.216;2022-09-03T00:50:29;480.87;;;215.80;;
8407;SDS011;4241;48.452;9.216;2022-09-03T00:53:08;476.60;;;211.03;;
8407;SDS011;4241;48.452;9.216;2022-09-03T00:55:42;479.70;;;212.27;;
8407;SDS011;4241;48.452;9.216;2022-09-03T01:01:14;478.83;;;206.67;;
8407;SDS011;4241;48.452;9.216;2022-09-03T01:03:47;479.23;;;209.83;;
8407;SDS011;4241;48.452;9.216;2022-09-03T01:06:23;478.50;;;209.20;;
8407;SDS011;4241;48.452;9.216;2022-09-03T01:09:02;478.33;;;207.67;;
8407;SDS011;4241;48.452;9.216;2022-09-03T01:11:38;478.43;;;210.07;;
8407;SDS011;4241;48.452;9.216;2022-09-03T01:14:16;479.40;;;213.40;;
8407;SDS011;4241;48.452;9.216;2022-09-03T01:16:52;477.00;;;209.27;;
8407;SDS011;4241;48.452;9.216;2022-09-03T01:19:46;477.67;;;209.03;;
8407;SDS011;4241;48.452;9.216;2022-09-03T01:22:42;478.80;;;208.63;;
8407;SDS011;4241;48.452;9.216;2022-09-03T01:25:25;478.07;;;207.17;;
8407;SDS011;4241;48.452;9.216;2022-09-03T01:28:05;478.83;;;211.37;;
8407;SDS011;4241;48.452;9.216;2022-09-03T01:30:43;478.67;;;210.37;;
8407;SDS011;4241;48.452;9.216;2022-09-03T01:33:16;479.27;;;210.70;;
8407;SDS011;4241;48.452;9.216;2022-09-03T01:35:51;476.40;;;204.70;;
8407;SDS011;4241;48.452;9.216;2022-09-03T01:38:26;484.17;;;217.97;;
8407;SDS011;4241;48.452;9.216;2022-09-03T01:41:02;477.23;;;208.20;;
8407;SDS011;4241;48.452;9.216;2022-09-03T01:43:59;476.90;;;206.53;;
8407;SDS011;4241;48.452;9.216;2022-09-03T01:46:36;476.57;;;206.00;;
8407;SDS011;4241;48.452;9.216;2022-09-03T01:49:09;476.90;;;205.20;;
8407;SDS011;4241;48.452;9.216;2022-09-03T01:51:47;474.03;;;200.37;;
8407;SDS011;4241;48.452;9.216;2022-09-03T01:54:25;475.27;;;200.67;;
8407;SDS011;4241;48.452;9.216;2022-09-03T02:00:06;476.47;;;203.07;;
8407;SDS011;4241;48.452;9.216;2022-09-03T02:02:37;476.00;;;202.03;;
8407;SDS011;4241;48.452;9.216;2022-09-03T02:05:06;477.17;;;204.77;;
8407;SDS011;4241;48.452;9.216;2022-09-03T02:07:36;502.10;;;225.93;;
8407;SDS011;4241;48.452;9.216;2022-09-03T02:10:06;476.57;;;202.73;;
8407;SDS011;4241;48.452;9.216;2022-09-03T02:12:35;476.23;;;204.23;;
8407;SDS011;4241;48.452;9.216;2022-09-03T02:15:04;476.63;;;205.33;;
8407;SDS011;4241;48.452;9.216;2022-09-03T02:17:37;478.03;;;206.73;;
8407;SDS011;4241;48.452;9.216;2022-09-03T02:20:07;477.43;;;206.40;;
8407;SDS011;4241;48.452;9.216;2022-09-03T02:22:35;480.97;;;210.03;;
8407;SDS011;4241;48.452;9.216;2022-09-03T02:25:03;475.43;;;203.30;;
8407;SDS011;4241;48.452;9.216;2022-09-03T02:27:31;477.70;;;204.77;;
8407;SDS011;4241;48.452;9.216;2022-09-03T02:29:58;478.33;;;208.30;;
8407;SDS011;4241;48.452;9.216;2022-09-03T02:32:26;477.03;;;201.20;;
8407;SDS011;4241;48.452;9.216;2022-09-03T02:34:53;474.47;;;200.00;;
8407;SDS011;4241;48.452;9.216;2022-09-03T02:37:20;474.27;;;198.63;;
8407;SDS011;4241;48.452;9.216;2022-09-03T02:39:48;476.13;;;202.70;;
8407;SDS011;4241;48.452;9.216;2022-09-03T02:42:16;475.47;;;199.70;;
8407;SDS011;4241;48.452;9.216;2022-09-03T02:44:45;475.13;;;199.93;;
8407;SDS011;4241;48.452;9.216;2022-09-03T02:47:18;474.90;;;197.50;;
8407;SDS011;4241;48.452;9.216;2022-09-03T02:49:47;476.43;;;201.80;;
8407;SDS011;4241;48.452;9.216;2022-09-03T02:52:14;474.70;;;198.87;;
8407;SDS011;4241;48.452;9.216;2022-09-03T02:54:41;476.50;;;197.17;;
8407;SDS011;4241;48.452;9.216;2022-09-03T02:57:11;476.67;;;199.87;;
8407;SDS011;4241;48.452;9.216;2022-09-03T02:59:40;473.83;;;191.57;;
8407;SDS011;4241;48.452;9.216;2022-09-03T03:02:09;473.53;;;191.77;;
8407;SDS011;4241;48.452;9.216;2022-09-03T03:04:36;471.60;;;186.97;;
8407;SDS011;4241;48.452;9.216;2022-09-03T03:07:04;470.47;;;188.50;;
8407;SDS011;4241;48.452;9.216;2022-09-03T03:09:31;474.17;;;193.57;;
8407;SDS011;4241;48.452;9.216;2022-09-03T03:11:59;468.57;;;183.03;;
8407;SDS011;4241;48.452;9.216;2022-09-03T03:14:26;473.73;;;192.47;;
8407;SDS011;4241;48.452;9.216;2022-09-03T03:16:53;470.27;;;187.53;;
8407;SDS011;4241;48.452;9.216;2022-09-03T03:19:19;470.90;;;190.03;;
8407;SDS011;4241;48.452;9.216;2022-09-03T03:21:46;470.30;;;187.63;;
8407;SDS011;4241;48.452;9.216;2022-09-03T03:24:14;471.33;;;191.10;;
8407;SDS011;4241;48.452;9.216;2022-09-03T03:26:41;471.50;;;190.73;;
8407;SDS011;4241;48.452;9.216;2022-09-03T03:29:09;469.40;;;187.67;;
8407;SDS011;4241;48.452;9.216;2022-09-03T03:31:41;471.63;;;191.43;;
8407;SDS011;4241;48.452;9.216;2022-09-03T03:34:08;470.63;;;191.80;;
8407;SDS011;4241;48.452;9.216;2022-09-03T03:36:34;471.57;;;190.20;;
8407;SDS011;4241;48.452;9.216;2022-09-03T03:39:01;473.07;;;192.63;;
8407;SDS011;4241;48.452;9.216;2022-09-03T03:41:30;472.47;;;192.73;;
8407;SDS011;4241;48.452;9.216;2022-09-03T03:43:59;472.33;;;191.13;;
8407;SDS011;4241;48.452;9.216;2022-09-03T03:46:29;473.00;;;195.00;;
8407;SDS011;4241;48.452;9.216;2022-09-03T03:48:58;473.50;;;195.37;;
8407;SDS011;4241;48.452;9.216;2022-09-03T03:51:25;469.40;;;191.57;;
8407;SDS011;4241;48.452;9.216;2022-09-03T03:53:53;468.93;;;190.10;;
8407;SDS011;4241;48.452;9.216;2022-09-03T03:56:21;473.97;;;194.63;;
8407;SDS011;4241;48.452;9.216;2022-09-03T03:58:50;471.43;;;191.13;;
8407;SDS011;4241;48.452;9.216;2022-09-03T04:01:18;472.23;;;193.70;;
8407;SDS011;4241;48.452;9.216;2022-09-03T04:03:46;473.47;;;196.63;;
8407;SDS011;4241;48.452;9.216;2022-09-03T04:06:14;471.90;;;192.57;;
8407;SDS011;4241;48.452;9.216;2022-09-03T04:08:42;472.47;;;195.10;;
8407;SDS011;4241;48.452;9.216;2022-09-03T04:11:12;471.27;;;191.90;;
8407;SDS011;4241;48.452;9.216;2022-09-03T04:13:40;473.27;;;195.27;;
8407;SDS011;4241;48.452;9.216;2022-09-03T04:16:10;471.73;;;192.77;;
8407;SDS011;4241;48.452;9.216;2022-09-03T04:18:38;473.23;;;195.23;;
8407;SDS011;4241;48.452;9.216;2022-09-03T04:21:07;472.73;;;194.57;;
8407;SDS011;4241;48.452;9.216;2022-09-03T04:23:36;473.80;;;195.00;;
8407;SDS011;4241;48.452;9.216;2022-09-03T04:26:06;471.50;;;191.13;;
8407;SDS011;4241;48.452;9.216;2022-09-03T04:28:34;475.63;;;197.33;;
8407;SDS011;4241;48.452;9.216;2022-09-03T04:31:05;472.93;;;195.87;;
8407;SDS011;4241;48.452;9.216;2022-09-03T04:33:35;470.47;;;188.93;;
8407;SDS011;4241;48.452;9.216;2022-09-03T04:36:03;471.77;;;193.70;;
8407;SDS011;4241;48.452;9.216;2022-09-03T04:38:31;476.23;;;198.13;;
8407;SDS011;4241;48.452;9.216;2022-09-03T04:40:58;472.70;;;194.90;;
8407;SDS011;4241;48.452;9.216;2022-09-03T04:43:25;470.67;;;192.20;;
8407;SDS011;4241;48.452;9.216;2022-09-03T04:45:55;472.30;;;195.57;;
8407;SDS011;4241;48.452;9.216;2022-09-03T04:48:23;481.23;;;204.17;;
8407;SDS011;4241;48.452;9.216;2022-09-03T04:50:51;474.90;;;198.17;;
8407;SDS011;4241;48.452;9.216;2022-09-03T04:53:19;475.53;;;196.33;;
8407;SDS011;4241;48.452;9.216;2022-09-03T04:55:47;473.77;;;197.43;;
8407;SDS011;4241;48.452;9.216;2022-09-03T04:58:15;474.23;;;194.57;;
8407;SDS011;4241;48.452;9.216;2022-09-03T05:00:41;473.33;;;197.77;;
8407;SDS011;4241;48.452;9.216;2022-09-03T05:03:08;472.33;;;197.97;;
8407;SDS011;4241;48.452;9.216;2022-09-03T05:05:35;472.07;;;193.47;;
8407;SDS011;4241;48.452;9.216;2022-09-03T05:08:03;472.33;;;190.43;;
8407;SDS011;4241;48.452;9.216;2022-09-03T05:10:31;473.67;;;193.20;;
8407;SDS011;4241;48.452;9.216;2022-09-03T05:12:59;473.10;;;193.07;;
8407;SDS011;4241;48.452;9.216;2022-09-03T05:15:27;472.73;;;197.47;;
8407;SDS011;4241;48.452;9.216;2022-09-03T05:17:55;472.80;;;195.27;;
8407;SDS011;4241;48.452;9.216;2022-09-03T05:20:22;472.97;;;196.70;;
8407;SDS011;4241;48.452;9.216;2022-09-03T05:22:49;474.10;;;198.10;;
8407;SDS011;4241;48.452;9.216;2022-09-03T05:25:17;472.43;;;194.63;;
8407;SDS011;4241;48.452;9.216;2022-09-03T05:27:44;472.67;;;195.00;;
8407;SDS011;4241;48.452;9.216;2022-09-03T05:30:11;473.57;;;195.47;;
8407;SDS011;4241;48.452;9.216;2022-09-03T05:32:39;471.67;;;193.10;;
8407;SDS011;4241;48.452;9.216;2022-09-03T05:35:06;474.17;;;196.77;;
8407;SDS011;4241;48.452;9.216;2022-09-03T05:37:34;472.77;;;195.77;;
8407;SDS011;4241;48.452;9.216;2022-09-03T05:40:02;473.00;;;197.87;;
8407;SDS011;4241;48.452;9.216;2022-09-03T05:42:31;473.30;;;196.63;;
8407;SDS011;4241;48.452;9.216;2022-09-03T05:45:02;473.60;;;197.57;;
8407;SDS011;4241;48.452;9.216;2022-09-03T05:47:34;473.57;;;197.23;;
8407;SDS011;4241;48.452;9.216;2022-09-03T05:50:05;475.10;;;197.53;;
8407;SDS011;4241;48.452;9.216;2022-09-03T05:52:34;485.13;;;207.17;;
8407;SDS011;4241;48.452;9.216;2022-09-03T05:55:01;473.17;;;197.97;;
8407;SDS011;4241;48.452;9.216;2022-09-03T05:57:28;472.70;;;195.87;;
8407;SDS011;4241;48.452;9.216;2022-09-03T05:59:57;475.43;;;200.53;;
8407;SDS011;4241;48.452;9.216;2022-09-03T06:02:24;475.30;;;203.00;;
8407;SDS011;4241;48.452;9.216;2022-09-03T06:04:52;477.70;;;203.77;;
8407;SDS011;4241;48.452;9.216;2022-09-03T06:07:20;501.03;;;226.73;;
8407;SDS011;4241;48.452;9.216;2022-09-03T06:09:46;477.63;;;204.90;;
8407;SDS011;4241;48.452;9.216;2022-09-03T06:12:14;479.67;;;207.17;;
8407;SDS011;4241;48.452;9.216;2022-09-03T06:14:41;477.70;;;203.37;;
8407;SDS011;4241;48.452;9.216;2022-09-03T06:17:09;477.17;;;202.90;;
8407;SDS011;4241;48.452;9.216;2022-09-03T06:19:36;474.93;;;201.70;;
8407;SDS011;4241;48.452;9.216;2022-09-03T06:22:04;476.20;;;201.63;;
8407;SDS011;4241;48.452;9.216;2022-09-03T06:24:31;477.03;;;204.23;;
8407;SDS011;4241;48.452;9.216;2022-09-03T06:26:57;478.43;;;206.87;;
8407;SDS011;4241;48.452;9.216;2022-09-03T06:29:25;477.43;;;206.20;;
8407;SDS011;4241;48.452;9.216;2022-09-03T06:31:52;479.00;;;208.17;;
8407;SDS011;4241;48.452;9.216;2022-09-03T06:34:21;479.33;;;209.93;;
8407;SDS011;4241;48.452;9.216;2022-09-03T06:36:49;478.97;;;209.87;;
8407;SDS011;4241;48.452;9.216;2022-09-03T06:39:16;478.20;;;209.77;;
8407;SDS011;4241;48.452;9.216;2022-09-03T06:41:43;479.43;;;211.77;;
8407;SDS011;4241;48.452;9.216;2022-09-03T06:44:12;480.40;;;212.77;;
8407;SDS011;4241;48.452;9.216;2022-09-03T06:46:39;478.03;;;210.77;;
8407;SDS011;4241;48.452;9.216;2022-09-03T06:49:07;480.60;;;214.57;;
8407;SDS011;4241;48.452;9.216;2022-09-03T06:51:36;478.10;;;214.70;;
8407;SDS011;4241;48.452;9.216;2022-09-03T06:54:04;481.23;;;217.83;;
8407;SDS011;4241;48.452;9.216;2022-09-03T06:56:32;480.90;;;218.27;;
8407;SDS011;4241;48.452;9.216;2022-09-03T06:59:03;482.03;;;218.57;;
8407;SDS011;4241;48.452;9.216;2022-09-03T07:01:31;481.30;;;215.60;;
8407;SDS011;4241;48.452;9.216;2022-09-03T07:04:00;482.60;;;219.87;;
8407;SDS011;4241;48.452;9.216;2022-09-03T07:06:29;480.73;;;219.07;;
8407;SDS011;4241;48.452;9.216;2022-09-03T07:08:59;481.97;;;219.03;;
8407;SDS011;4241;48.452;9.216;2022-09-03T07:11:27;479.33;;;217.93;;
8407;SDS011;4241;48.452;9.216;2022-09-03T07:13:56;479.33;;;217.97;;
8407;SDS011;4241;48.452;9.216;2022-09-03T07:16:24;481.87;;;220.87;;
8407;SDS011;4241;48.452;9.216;2022-09-03T07:18:52;484.17;;;225.80;;
8407;SDS011;4241;48.452;9.216;2022-09-03T07:21:21;482.73;;;225.87;;
8407;SDS011;4241;48.452;9.216;2022-09-03T07:23:50;483.03;;;224.67;;
8407;SDS011;4241;48.452;9.216;2022-09-03T07:26:20;482.23;;;224.60;;
8407;SDS011;4241;48.452;9.216;2022-09-03T07:28:48;483.40;;;225.73;;
8407;SDS011;4241;48.452;9.216;2022-09-03T07:31:15;483.43;;;223.17;;
8407;SDS011;4241;48.452;9.216;2022-09-03T07:33:43;483.33;;;224.83;;
8407;SDS011;4241;48.452;9.216;2022-09-03T07:36:11;484.87;;;229.10;;
8407;SDS011;4241;48.452;9.216;2022-09-03T07:38:40;486.27;;;230.50;;
8407;SDS011;4241;48.452;9.216;2022-09-03T07:41:09;487.50;;;225.67;;
8407;SDS011;4241;48.452;9.216;2022-09-03T07:43:39;485.10;;;229.13;;
8407;SDS011;4241;48.452;9.216;2022-09-03T07:46:07;483.07;;;228.90;;
8407;SDS011;4241;48.452;9.216;2022-09-03T07:48:37;486.73;;;231.57;;
8407;SDS011;4241;48.452;9.216;2022-09-03T07:51:04;485.37;;;230.50;;
8407;SDS011;4241;48.452;9.216;2022-09-03T07:53:31;484.77;;;229.53;;
8407;SDS011;4241;48.452;9.216;2022-09-03T07:56:02;483.83;;;229.30;;
8407;SDS011;4241;48.452;9.216;2022-09-03T07:58:30;487.90;;;231.33;;
8407;SDS011;4241;48.452;9.216;2022-09-03T08:01:02;482.57;;;225.17;;
8407;SDS011;4241;48.452;9.216;2022-09-03T08:03:32;485.43;;;231.70;;
8407;SDS011;4241;48.452;9.216;2022-09-03T08:05:59;487.37;;;231.63;;
8407;SDS011;4241;48.452;9.216;2022-09-03T08:08:27;491.87;;;239.50;;
8407;SDS011;4241;48.452;9.216;2022-09-03T08:10:54;483.37;;;233.93;;
8407;SDS011;4241;48.452;9.216;2022-09-03T08:13:28;486.57;;;235.07;;
8407;SDS011;4241;48.452;9.216;2022-09-03T08:15:55;487.73;;;240.37;;
8407;SDS011;4241;48.452;9.216;2022-09-03T08:18:25;496.00;;;245.70;;
8407;SDS011;4241;48.452;9.216;2022-09-03T08:21:02;485.70;;;233.93;;
8407;SDS011;4241;48.452;9.216;2022-09-03T08:23:32;486.20;;;236.63;;
8407;SDS011;4241;48.452;9.216;2022-09-03T08:26:01;484.40;;;235.47;;
8407;SDS011;4241;48.452;9.216;2022-09-03T08:28:28;491.00;;;240.23;;
8407;SDS011;4241;48.452;9.216;2022-09-03T08:30:58;485.83;;;233.47;;
8407;SDS011;4241;48.452;9.216;2022-09-03T08:33:31;487.20;;;237.53;;
8407;SDS011;4241;48.452;9.216;2022-09-03T08:36:05;485.47;;;233.67;;
8407;SDS011;4241;48.452;9.216;2022-09-03T08:38:34;494.10;;;250.27;;
8407;SDS011;4241;48.452;9.216;2022-09-03T08:41:05;487.70;;;249.00;;
8407;SDS011;4241;48.452;9.216;2022-09-03T08:43:37;487.93;;;250.20;;
8407;SDS011;4241;48.452;9.216;2022-09-03T08:46:18;492.80;;;259.60;;
8407;SDS011;4241;48.452;9.216;2022-09-03T08:48:48;493.67;;;264.27;;
8407;SDS011;4241;48.452;9.216;2022-09-03T08:51:16;494.63;;;265.80;;
8407;SDS011;4241;48.452;9.216;2022-09-03T08:53:45;500.90;;;272.57;;
8407;SDS011;4241;48.452;9.216;2022-09-03T08:56:17;491.83;;;264.70;;
8407;SDS011;4241;48.452;9.216;2022-09-03T08:58:49;494.63;;;270.43;;
8407;SDS011;4241;48.452;9.216;2022-09-03T09:01:17;495.17;;;270.93;;
8407;SDS011;4241;48.452;9.216;2022-09-03T09:03:54;497.87;;;276.53;;
8407;SDS011;4241;48.452;9.216;2022-09-03T09:06:32;496.70;;;280.83;;
8407;SDS011;4241;48.452;9.216;2022-09-03T09:09:06;497.20;;;283.43;;
8407;SDS011;4241;48.452;9.216;2022-09-03T09:11:48;499.83;;;289.90;;
8407;SDS011;4241;48.452;9.216;2022-09-03T09:14:24;500.63;;;294.47;;
8407;SDS011;4241;48.452;9.216;2022-09-03T09:16:58;501.73;;;301.13;;
8407;SDS011;4241;48.452;9.216;2022-09-03T09:19:40;501.87;;;303.30;;
8407;SDS011;4241;48.452;9.216;2022-09-03T09:22:18;500.97;;;304.37;;
8407;SDS011;4241;48.452;9.216;2022-09-03T09:24:51;501.20;;;302.17;;
8407;SDS011;4241;48.452;9.216;2022-09-03T09:27:21;500.53;;;307.17;;
8407;SDS011;4241;48.452;9.216;2022-09-03T09:29:49;498.17;;;300.77;;
8407;SDS011;4241;48.452;9.216;2022-09-03T09:32:17;502.57;;;307.07;;
8407;SDS011;4241;48.452;9.216;2022-09-03T09:34:46;501.73;;;301.63;;
8407;SDS011;4241;48.452;9.216;2022-09-03T09:37:14;499.43;;;299.00;;
8407;SDS011;4241;48.452;9.216;2022-09-03T09:39:54;503.00;;;302.10;;
8407;SDS011;4241;48.452;9.216;2022-09-03T09:42:22;499.90;;;295.57;;
8407;SDS011;4241;48.452;9.216;2022-09-03T09:44:50;501.57;;;295.57;;
8407;SDS011;4241;48.452;9.216;2022-09-03T09:47:20;498.90;;;298.23;;
8407;SDS011;4241;48.452;9.216;2022-09-03T09:49:52;497.37;;;290.93;;
8407;SDS011;4241;48.452;9.216;2022-09-03T09:52:21;499.87;;;295.83;;
8407;SDS011;4241;48.452;9.216;2022-09-03T09:54:50;500.57;;;300.13;;
8407;SDS011;4241;48.452;9.216;2022-09-03T09:57:20;499.00;;;295.47;;
8407;SDS011;4241;48.452;9.216;2022-09-03T09:59:49;500.67;;;301.10;;
8407;SDS011;4241;48.452;9.216;2022-09-03T10:02:28;498.27;;;299.83;;
8407;SDS011;4241;48.452;9.216;2022-09-03T10:04:57;500.33;;;302.63;;
8407;SDS011;4241;48.452;9.216;2022-09-03T10:07:36;507.23;;;309.47;;
8407;SDS011;4241;48.452;9.216;2022-09-03T10:10:05;503.50;;;309.17;;
8407;SDS011;4241;48.452;9.216;2022-09-03T10:12:34;501.20;;;308.93;;
8407;SDS011;4241;48.452;9.216;2022-09-03T10:15:10;501.73;;;309.43;;
8407;SDS011;4241;48.452;9.216;2022-09-03T10:17:46;500.10;;;309.73;;
8407;SDS011;4241;48.452;9.216;2022-09-03T10:20:23;502.53;;;312.80;;
8407;SDS011;4241;48.452;9.216;2022-09-03T10:22:57;503.80;;;312.17;;
8407;SDS011;4241;48.452;9.216;2022-09-03T10:25:33;502.73;;;311.77;;
8407;SDS011;4241;48.452;9.216;2022-09-03T10:28:06;502.63;;;309.13;;
8407;SDS011;4241;48.452;9.216;2022-09-03T10:30:38;501.17;;;307.13;;
8407;SDS011;4241;48.452;9.216;2022-09-03T10:33:21;502.63;;;309.70;;
8407;SDS011;4241;48.452;9.216;2022-09-03T10:35:55;501.80;;;304.37;;
8407;SDS011;4241;48.452;9.216;2022-09-03T10:38:32;507.43;;;310.20;;
8407;SDS011;4241;48.452;9.216;2022-09-03T10:41:04;501.43;;;306.70;;
8407;SDS011;4241;48.452;9.216;2022-09-03T10:43:51;500.10;;;304.50;;
8407;SDS011;4241;48.452;9.216;2022-09-03T10:46:33;500.60;;;302.40;;
8407;SDS011;4241;48.452;9.216;2022-09-03T10:49:19;504.67;;;307.20;;
8407;SDS011;4241;48.452;9.216;2022-09-03T10:52:00;499.87;;;301.67;;
8407;SDS011;4241;48.452;9.216;2022-09-03T10:54:42;500.87;;;300.53;;
8407;SDS011;4241;48.452;9.216;2022-09-03T10:57:22;499.27;;;298.57;;
8407;SDS011;4241;48.452;9.216;2022-09-03T11:00:04;500.43;;;301.13;;
8407;SDS011;4241;48.452;9.216;2022-09-03T11:02:39;498.77;;;299.77;;
8407;SDS011;4241;48.452;9.216;2022-09-03T11:05:31;498.57;;;290.97;;
8407;SDS011;4241;48.452;9.216;2022-09-03T11:08:06;499.63;;;299.47;;
8407;SDS011;4241;48.452;9.216;2022-09-03T11:10:37;501.53;;;300.30;;
8407;SDS011;4241;48.452;9.216;2022-09-03T11:13:10;499.33;;;296.70;;
8407;SDS011;4241;48.452;9.216;2022-09-03T11:15:41;499.90;;;297.77;;
8407;SDS011;4241;48.452;9.216;2022-09-03T11:18:14;500.67;;;296.13;;
8407;SDS011;4241;48.452;9.216;2022-09-03T11:20:45;499.37;;;293.97;;
8407;SDS011;4241;48.452;9.216;2022-09-03T11:23:16;498.07;;;287.40;;
8407;SDS011;4241;48.452;9.216;2022-09-03T11:25:45;499.10;;;284.23;;
8407;SDS011;4241;48.452;9.216;2022-09-03T11:28:19;499.97;;;285.27;;
8407;SDS011;4241;48.452;9.216;2022-09-03T11:31:02;493.67;;;274.37;;
8407;SDS011;4241;48.452;9.216;2022-09-03T11:33:43;494.07;;;270.37;;
8407;SDS011;4241;48.452;9.216;2022-09-03T11:36:20;494.43;;;271.03;;
8407;SDS011;4241;48.452;9.216;2022-09-03T11:38:53;494.30;;;264.87;;
8407;SDS011;4241;48.452;9.216;2022-09-03T11:41:22;493.10;;;260.83;;
8407;SDS011;4241;48.452;9.216;2022-09-03T11:43:51;491.73;;;260.97;;
8407;SDS011;4241;48.452;9.216;2022-09-03T11:46:26;491.07;;;258.30;;
8407;SDS011;4241;48.452;9.216;2022-09-03T11:48:54;490.23;;;249.03;;
8407;SDS011;4241;48.452;9.216;2022-09-03T11:51:30;487.17;;;242.33;;
8407;SDS011;4241;48.452;9.216;2022-09-03T11:54:02;486.13;;;236.77;;
8407;SDS011;4241;48.452;9.216;2022-09-03T11:56:30;488.30;;;229.83;;
8407;SDS011;4241;48.452;9.216;2022-09-03T11:58:59;483.03;;;221.97;;
8407;SDS011;4241;48.452;9.216;2022-09-03T12:01:29;482.53;;;221.07;;
8407;SDS011;4241;48.452;9.216;2022-09-03T12:04:00;482.87;;;217.60;;
8407;SDS011;4241;48.452;9.216;2022-09-03T12:06:44;478.70;;;207.73;;
8407;SDS011;4241;48.452;9.216;2022-09-03T12:12:36;476.87;;;200.33;;
8407;SDS011;4241;48.452;9.216;2022-09-03T12:15:13;475.93;;;199.77;;
8407;SDS011;4241;48.452;9.216;2022-09-03T12:17:49;476.93;;;201.17;;
8407;SDS011;4241;48.452;9.216;2022-09-03T12:20:38;474.53;;;197.13;;
8407;SDS011;4241;48.452;9.216;2022-09-03T12:23:05;472.83;;;196.90;;
8407;SDS011;4241;48.452;9.216;2022-09-03T12:25:41;475.43;;;198.00;;
8407;SDS011;4241;48.452;9.216;2022-09-03T12:28:11;476.80;;;200.60;;
8407;SDS011;4241;48.452;9.216;2022-09-03T12:30:45;477.03;;;203.80;;
8407;SDS011;4241;48.452;9.216;2022-09-03T12:33:15;476.33;;;205.80;;
8407;SDS011;4241;48.452;9.216;2022-09-03T12:35:45;477.13;;;204.67;;
8407;SDS011;4241;48.452;9.216;2022-09-03T12:38:22;482.07;;;209.33;;
8407;SDS011;4241;48.452;9.216;2022-09-03T12:40:49;477.30;;;206.10;;
8407;SDS011;4241;48.452;9.216;2022-09-03T12:43:18;479.00;;;212.27;;
8407;SDS011;4241;48.452;9.216;2022-09-03T12:45:45;478.40;;;214.30;;
8407;SDS011;4241;48.452;9.216;2022-09-03T12:48:15;479.03;;;215.37;;
8407;SDS011;4241;48.452;9.216;2022-09-03T12:50:44;485.00;;;223.47;;
8407;SDS011;4241;48.452;9.216;2022-09-03T12:53:13;482.90;;;221.77;;
8407;SDS011;4241;48.452;9.216;2022-09-03T12:55:47;483.57;;;224.37;;
8407;SDS011;4241;48.452;9.216;2022-09-03T12:58:16;486.87;;;225.33;;
8407;SDS011;4241;48.452;9.216;2022-09-03T13:00:48;485.40;;;227.97;;
8407;SDS011;4241;48.452;9.216;2022-09-03T13:03:20;485.13;;;231.07;;
8407;SDS011;4241;48.452;9.216;2022-09-03T13:05:53;485.73;;;232.43;;
8407;SDS011;4241;48.452;9.216;2022-09-03T13:08:22;490.37;;;237.67;;
8407;SDS011;4241;48.452;9.216;2022-09-03T13:10:52;484.30;;;230.73;;
8407;SDS011;4241;48.452;9.216;2022-09-03T13:13:23;484.23;;;233.37;;
8407;SDS011;4241;48.452;9.216;2022-09-03T13:16:13;483.00;;;229.37;;
8407;SDS011;4241;48.452;9.216;2022-09-03T13:19:04;486.00;;;232.53;;
8407;SDS011;4241;48.452;9.216;2022-09-03T13:21:38;483.53;;;229.43;;
8407;SDS011;4241;48.452;9.216;2022-09-03T13:24:16;484.20;;;231.97;;
8407;SDS011;4241;48.452;9.216;2022-09-03T13:26:55;485.57;;;231.20;;
8407;SDS011;4241;48.452;9.216;2022-09-03T13:29:37;485.00;;;231.73;;
8407;SDS011;4241;48.452;9.216;2022-09-03T13:32:19;485.83;;;233.20;;
8407;SDS011;4241;48.452;9.216;2022-09-03T13:34:56;485.30;;;234.67;;
8407;SDS011;4241;48.452;9.216;2022-09-03T13:37:27;485.83;;;235.67;;
8407;SDS011;4241;48.452;9.216;2022-09-03T13:40:08;487.70;;;238.27;;
8407;SDS011;4241;48.452;9.216;2022-09-03T13:42:40;486.37;;;240.60;;
8407;SDS011;4241;48.452;9.216;2022-09-03T13:45:14;487.77;;;239.30;;
8407;SDS011;4241;48.452;9.216;2022-09-03T13:47:48;486.30;;;240.67;;
8407;SDS011;4241;48.452;9.216;2022-09-03T13:50:41;488.47;;;242.87;;
8407;SDS011;4241;48.452;9.216;2022-09-03T13:53:14;490.27;;;245.87;;
8407;SDS011;4241;48.452;9.216;2022-09-03T13:55:50;486.50;;;244.20;;
8407;SDS011;4241;48.452;9.216;2022-09-03T13:58:21;491.70;;;247.17;;
8407;SDS011;4241;48.452;9.216;2022-09-03T14:01:05;489.63;;;247.20;;
8407;SDS011;4241;48.452;9.216;2022-09-03T14:03:42;490.80;;;248.43;;
8407;SDS011;4241;48.452;9.216;2022-09-03T14:06:13;489.30;;;246.50;;
8407;SDS011;4241;48.452;9.216;2022-09-03T14:08:55;490.43;;;250.20;;
8407;SDS011;4241;48.452;9.216;2022-09-03T14:11:29;488.50;;;244.43;;
8407;SDS011;4241;48.452;9.216;2022-09-03T14:14:06;487.93;;;244.07;;
8407;SDS011;4241;48.452;9.216;2022-09-03T14:16:43;485.00;;;239.03;;
8407;SDS011;4241;48.452;9.216;2022-09-03T14:19:20;487.70;;;241.97;;
8407;SDS011;4241;48.452;9.216;2022-09-03T14:21:58;488.83;;;244.90;;
8407;SDS011;4241;48.452;9.216;2022-09-03T14:24:36;486.90;;;243.27;;
8407;SDS011;4241;48.452;9.216;2022-09-03T14:27:10;487.97;;;243.33;;
8407;SDS011;4241;48.452;9.216;2022-09-03T14:29:37;489.10;;;245.20;;
8407;SDS011;4241;48.452;9.216;2022-09-03T14:32:20;489.00;;;245.87;;
8407;SDS011;4241;48.452;9.216;2022-09-03T14:35:14;487.73;;;246.10;;
8407;SDS011;4241;48.452;9.216;2022-09-03T14:38:01;486.67;;;245.87;;
8407;SDS011;4241;48.452;9.216;2022-09-03T14:40:46;490.33;;;247.33;;
8407;SDS011;4241;48.452;9.216;2022-09-03T14:43:23;489.73;;;248.77;;
8407;SDS011;4241;48.452;9.216;2022-09-03T14:46:06;489.77;;;247.23;;
8407;SDS011;4241;48.452;9.216;2022-09-03T14:48:45;490.80;;;247.40;;
8407;SDS011;4241;48.452;9.216;2022-09-03T14:51:26;489.50;;;245.03;;
8407;SDS011;4241;48.452;9.216;2022-09-03T14:54:13;489.90;;;250.00;;
8407;SDS011;4241;48.452;9.216;2022-09-03T14:57:05;488.23;;;243.07;;
8407;SDS011;4241;48.452;9.216;2022-09-03T14:59:54;492.30;;;250.23;;